Time;durP1;ratioP1;P1;durP2;ratioP2;P2;SDS_P1;SDS_P2;PMS_P1;PMS_P2;Temp;Humidity;BMP_temperature;BMP_pressure;BME280_temperature;BME280_humidity;BME280_pressure;Samples;Min_cycle;Max_cycle;Signal;HPM_P1;HPM_P2
2024/01/18 00:00:40;;;;;;;1.40;1.40;;;7.60;90.30;;;;;;5071122;28;20258;-61
2024/01/18 00:03:07;;;;;;;1.33;1.23;;;7.60;90.30;;;;;;5070962;28;20759;-63
2024/01/18 00:05:34;;;;;;;1.60;1.50;;;7.60;90.50;;;;;;5052062;28;20633;-64
2024/01/18 00:08:00;;;;;;;1.53;1.50;;;7.60;90.60;;;;;;5077539;28;20276;-64
2024/01/18 00:10:28;;;;;;;1.37;1.30;;;7.60;90.60;;;;;;5073197;28;20226;-64
2024/01/18 00:12:54;;;;;;;1.90;1.80;;;7.60;90.60;;;;;;5082481;28;20235;-64
2024/01/18 00:15:21;;;;;;;1.30;1.30;;;7.60;91.00;;;;;;5083884;28;20679;-65
2024/01/18 00:17:47;;;;;;;1.57;1.57;;;7.50;90.90;;;;;;5063114;28;20212;-63
2024/01/18 00:20:14;;;;;;;1.50;1.40;;;7.60;90.90;;;;;;5076710;28;20736;-65
2024/01/18 00:22:40;;;;;;;1.50;1.50;;;7.60;91.00;;;;;;5074401;28;20231;-64
2024/01/18 00:25:07;;;;;;;1.40;1.40;;;7.60;91.00;;;;;;5080273;28;20313;-64
2024/01/18 00:27:34;;;;;;;1.60;1.50;;;7.60;91.00;;;;;;5080525;28;20218;-64
2024/01/18 00:30:00;;;;;;;1.47;1.37;;;7.60;91.20;;;;;;5083108;28;20674;-63
2024/01/18 00:32:27;;;;;;;1.37;1.37;;;7.50;91.20;;;;;;5083711;28;20203;-64
2024/01/18 00:34:53;;;;;;;1.40;1.40;;;7.60;91.50;;;;;;5086357;28;20234;-64
2024/01/18 00:37:20;;;;;;;1.60;1.50;;;7.60;91.10;;;;;;5079902;28;20291;-64
2024/01/18 00:39:46;;;;;;;1.63;1.53;;;7.60;91.40;;;;;;5066973;28;20706;-65
2024/01/18 00:42:13;;;;;;;1.33;1.33;;;7.60;91.00;;;;;;5075976;28;20231;-63
2024/01/18 00:44:39;;;;;;;1.70;1.60;;;7.60;91.20;;;;;;5077225;28;20235;-64
2024/01/18 00:47:06;;;;;;;1.77;1.40;;;7.50;91.30;;;;;;5075545;28;20734;-64
2024/01/18 00:49:33;;;;;;;1.53;1.50;;;7.60;91.30;;;;;;5075729;28;20246;-64
2024/01/18 00:52:01;;;;;;;1.57;1.50;;;7.60;91.10;;;;;;5080591;28;20591;-64
2024/01/18 00:54:28;;;;;;;1.40;1.40;;;7.60;91.00;;;;;;5079838;28;20281;-64
2024/01/18 00:56:54;;;;;;;1.40;1.40;;;7.60;90.90;;;;;;5074183;28;20225;-65
2024/01/18 00:59:21;;;;;;;1.30;1.30;;;7.60;90.80;;;;;;5073681;28;20215;-64
2024/01/18 01:01:47;;;;;;;1.33;1.30;;;7.60;91.00;;;;;;5079694;28;20287;-63
2024/01/18 01:04:14;;;;;;;1.30;1.30;;;7.60;91.00;;;;;;5081235;28;20199;-64
2024/01/18 01:06:41;;;;;;;1.23;1.23;;;7.60;90.90;;;;;;5080264;28;20230;-64
2024/01/18 01:09:07;;;;;;;1.40;1.40;;;7.50;90.90;;;;;;5081372;28;20224;-64
2024/01/18 01:11:34;;;;;;;1.40;1.30;;;7.50;90.90;;;;;;5084059;28;20243;-64
2024/01/18 01:14:00;;;;;;;1.60;1.50;;;7.50;91.00;;;;;;5067246;28;20208;-63
2024/01/18 01:16:27;;;;;;;1.40;1.40;;;7.50;91.10;;;;;;5075599;28;20246;-64
2024/01/18 01:18:53;;;;;;;1.23;1.23;;;7.50;91.00;;;;;;5073735;28;20207;-63
2024/01/18 01:21:20;;;;;;;1.40;1.40;;;7.50;91.00;;;;;;5083047;28;20266;-63
2024/01/18 01:23:48;;;;;;;1.20;1.20;;;7.50;90.90;;;;;;5073745;28;20205;-63
2024/01/18 01:26:15;;;;;;;1.10;1.10;;;7.50;90.90;;;;;;5082036;28;20730;-62
2024/01/18 01:28:42;;;;;;;1.30;1.30;;;7.50;90.70;;;;;;5076617;28;20201;-63
2024/01/18 01:31:08;;;;;;;1.30;1.30;;;7.50;90.50;;;;;;5083397;28;20214;-63
2024/01/18 01:33:35;;;;;;;1.20;1.20;;;7.50;90.60;;;;;;5078166;28;20215;-64
2024/01/18 01:36:02;;;;;;;1.57;1.47;;;7.50;90.40;;;;;;5078064;28;20238;-63
2024/01/18 01:38:29;;;;;;;1.30;1.30;;;7.50;90.10;;;;;;5073248;28;20204;-63
2024/01/18 01:40:55;;;;;;;1.33;1.33;;;7.50;89.90;;;;;;5073489;28;20267;-63
2024/01/18 01:43:23;;;;;;;1.10;1.10;;;7.50;89.70;;;;;;5072150;28;20235;-63
2024/01/18 01:45:49;;;;;;;1.30;1.30;;;7.50;89.70;;;;;;5077934;28;20225;-63
2024/01/18 01:48:16;;;;;;;1.30;1.30;;;7.50;90.20;;;;;;5075494;28;20277;-63
2024/01/18 01:50:42;;;;;;;1.30;1.30;;;7.40;90.20;;;;;;5070499;28;20209;-63
2024/01/18 01:53:09;;;;;;;1.27;1.20;;;7.50;90.00;;;;;;5081602;28;20239;-63
2024/01/18 01:55:35;;;;;;;1.27;1.27;;;7.50;89.30;;;;;;5074476;28;20246;-63
2024/01/18 01:58:02;;;;;;;1.17;1.17;;;7.50;88.20;;;;;;5086326;28;20289;-63
2024/01/18 02:00:28;;;;;;;1.13;1.13;;;7.50;87.80;;;;;;5070383;28;20252;-64
2024/01/18 02:02:55;;;;;;;1.20;1.20;;;7.50;87.40;;;;;;5083119;28;20739;-63
2024/01/18 02:05:21;;;;;;;1.20;1.20;;;7.50;87.50;;;;;;5078534;28;20233;-63
2024/01/18 02:07:48;;;;;;;1.40;1.40;;;7.50;86.70;;;;;;5083217;28;20222;-63
2024/01/18 02:10:14;;;;;;;1.17;1.17;;;7.50;86.80;;;;;;5076172;28;20662;-63
2024/01/18 02:12:41;;;;;;;1.30;1.20;;;7.40;86.60;;;;;;5061047;28;20266;-62
2024/01/18 02:15:08;;;;;;;1.20;1.20;;;7.50;86.60;;;;;;5082748;28;20234;-63
2024/01/18 02:17:35;;;;;;;1.30;1.30;;;7.50;85.70;;;;;;5083578;28;20220;-62
2024/01/18 02:20:04;;;;;;;1.57;1.20;;;7.50;85.80;;;;;;5085892;28;20264;-62
2024/01/18 02:22:30;;;;;;;1.30;1.30;;;7.40;85.90;;;;;;5077500;28;20222;-63
2024/01/18 02:24:57;;;;;;;1.23;1.23;;;7.40;85.80;;;;;;5069096;28;20557;-63
2024/01/18 02:27:23;;;;;;;1.33;1.30;;;7.50;85.30;;;;;;5073697;28;20690;-63
2024/01/18 02:29:50;;;;;;;1.40;1.30;;;7.50;84.60;;;;;;5081734;28;20289;-63
2024/01/18 02:32:16;;;;;;;1.40;1.40;;;7.40;85.20;;;;;;5075238;28;20236;-62
2024/01/18 02:34:43;;;;;;;1.20;1.20;;;7.40;85.30;;;;;;5076899;28;20215;-63
2024/01/18 02:37:10;;;;;;;1.30;1.30;;;7.40;84.70;;;;;;5088622;28;20201;-62
2024/01/18 02:39:36;;;;;;;1.30;1.30;;;7.40;84.20;;;;;;5083820;28;20202;-63
2024/01/18 02:42:03;;;;;;;1.27;1.27;;;7.40;84.20;;;;;;5074087;28;20642;-63
2024/01/18 02:44:29;;;;;;;1.23;1.23;;;7.40;83.60;;;;;;5079336;28;20265;-63
2024/01/18 02:46:56;;;;;;;1.27;1.27;;;7.40;83.50;;;;;;5063772;28;20317;-63
2024/01/18 02:49:22;;;;;;;1.40;1.40;;;7.40;83.50;;;;;;5068703;28;20660;-63
2024/01/18 02:51:49;;;;;;;1.27;1.27;;;7.40;82.40;;;;;;5077093;28;20205;-63
2024/01/18 02:54:15;;;;;;;1.40;1.40;;;7.40;82.40;;;;;;5082022;28;20203;-63
2024/01/18 02:56:42;;;;;;;1.30;1.30;;;7.40;82.10;;;;;;5075810;28;20241;-63
2024/01/18 02:59:08;;;;;;;1.30;1.30;;;7.40;82.00;;;;;;5073349;28;20261;-63
2024/01/18 03:01:35;;;;;;;1.27;1.27;;;7.40;82.20;;;;;;5082560;28;20517;-63
2024/01/18 03:04:01;;;;;;;1.33;1.33;;;7.40;81.30;;;;;;5067530;28;20242;-63
2024/01/18 03:06:28;;;;;;;1.20;1.20;;;7.40;81.20;;;;;;5067244;28;20259;-63
2024/01/18 03:08:54;;;;;;;1.20;1.20;;;7.40;81.50;;;;;;5073235;28;20208;-63
2024/01/18 03:11:21;;;;;;;1.17;1.17;;;7.40;82.50;;;;;;5077364;28;20337;-63
2024/01/18 03:13:47;;;;;;;1.30;1.30;;;7.30;82.60;;;;;;5091498;28;20203;-63
2024/01/18 03:16:15;;;;;;;1.33;1.33;;;7.30;82.40;;;;;;5071556;28;20280;-61
2024/01/18 03:18:43;;;;;;;1.00;1.00;;;7.30;82.00;;;;;;5088129;28;20714;-62
2024/01/18 03:21:10;;;;;;;1.30;1.30;;;7.30;82.10;;;;;;5064839;28;20228;-63
2024/01/18 03:23:36;;;;;;;1.30;1.30;;;7.30;81.80;;;;;;5076909;28;20627;-63
2024/01/18 03:26:03;;;;;;;1.30;1.30;;;7.40;81.70;;;;;;5079621;28;20226;-63
2024/01/18 03:28:29;;;;;;;1.30;1.30;;;7.30;81.10;;;;;;5084803;28;20287;-62
2024/01/18 03:30:56;;;;;;;1.30;1.20;;;7.30;80.90;;;;;;5082951;28;20250;-63
2024/01/18 03:33:22;;;;;;;1.33;1.33;;;7.30;81.40;;;;;;5075770;28;20254;-63
2024/01/18 03:35:49;;;;;;;1.20;1.20;;;7.30;81.20;;;;;;5073697;28;20227;-63
2024/01/18 03:38:15;;;;;;;1.50;1.40;;;7.30;81.30;;;;;;5070563;28;20623;-63
2024/01/18 03:40:42;;;;;;;2.03;1.30;;;7.30;81.20;;;;;;5078996;28;20230;-63
2024/01/18 03:43:08;;;;;;;1.30;1.30;;;7.30;81.20;;;;;;5073328;28;20215;-63
2024/01/18 03:45:35;;;;;;;1.40;1.40;;;7.30;81.30;;;;;;5067223;28;20666;-63
2024/01/18 03:48:01;;;;;;;1.37;1.30;;;7.40;80.90;;;;;;5071775;28;20215;-62
2024/01/18 03:50:28;;;;;;;1.27;1.27;;;7.40;80.80;;;;;;5078649;28;20633;-63
2024/01/18 03:52:54;;;;;;;1.40;1.40;;;7.40;80.40;;;;;;5082554;28;20246;-63
2024/01/18 03:55:21;;;;;;;1.37;1.37;;;7.40;80.40;;;;;;5071733;28;20223;-63
2024/01/18 03:57:47;;;;;;;1.70;1.60;;;7.40;80.10;;;;;;5084841;28;20782;-63
2024/01/18 04:00:14;;;;;;;1.20;1.20;;;7.40;79.70;;;;;;5081148;28;20258;-63
2024/01/18 04:02:40;;;;;;;1.30;1.30;;;7.40;79.60;;;;;;5080675;28;20242;-63
2024/01/18 04:05:07;;;;;;;1.60;1.60;;;7.40;79.60;;;;;;5080502;28;20656;-63
2024/01/18 04:07:35;;;;;;;1.30;1.30;;;7.40;79.60;;;;;;5080263;28;20207;-64
2024/01/18 04:10:02;;;;;;;1.37;1.37;;;7.40;79.10;;;;;;5062512;28;20273;-64
2024/01/18 04:12:28;;;;;;;1.37;1.37;;;7.50;79.20;;;;;;5067872;28;20236;-63
2024/01/18 04:14:55;;;;;;;1.40;1.37;;;7.40;79.30;;;;;;5070446;28;20273;-63
2024/01/18 04:17:21;;;;;;;1.60;1.60;;;7.40;79.00;;;;;;5083022;28;20250;-63
2024/01/18 04:19:48;;;;;;;1.53;1.43;;;7.40;78.80;;;;;;5081355;28;20204;-63
2024/01/18 04:22:14;;;;;;;1.30;1.20;;;7.40;79.50;;;;;;5081252;28;20237;-63
2024/01/18 04:24:41;;;;;;;2.03;1.67;;;7.40;78.30;;;;;;5084479;28;20245;-60
2024/01/18 04:27:07;;;;;;;1.30;1.30;;;7.40;78.40;;;;;;5076958;28;20717;-63
2024/01/18 04:29:34;;;;;;;1.50;1.47;;;7.40;78.20;;;;;;5076389;28;20242;-63
2024/01/18 04:32:00;;;;;;;1.40;1.30;;;7.40;78.20;;;;;;5070312;28;20205;-63
2024/01/18 04:34:27;;;;;;;1.33;1.33;;;7.40;78.20;;;;;;5076703;28;20301;-64
2024/01/18 04:36:53;;;;;;;1.43;1.33;;;7.40;77.60;;;;;;5079759;28;20270;-63
2024/01/18 04:39:20;;;;;;;1.30;1.30;;;7.40;78.80;;;;;;5083837;28;20207;-63
2024/01/18 04:41:47;;;;;;;1.33;1.30;;;7.50;77.30;;;;;;5075653;28;20597;-63
2024/01/18 04:44:13;;;;;;;1.70;1.60;;;7.40;77.00;;;;;;5084914;28;20239;-63
2024/01/18 04:46:40;;;;;;;1.30;1.30;;;7.50;77.20;;;;;;5079979;28;20250;-63
2024/01/18 04:49:06;;;;;;;1.60;1.50;;;7.40;77.40;;;;;;5081551;28;20248;-61
2024/01/18 04:51:33;;;;;;;1.30;1.30;;;7.40;77.20;;;;;;5066970;28;20266;-64
2024/01/18 04:53:59;;;;;;;1.50;1.40;;;7.40;77.30;;;;;;5074640;28;20598;-62
2024/01/18 04:56:26;;;;;;;1.27;1.27;;;7.40;77.70;;;;;;5076340;28;20256;-63
2024/01/18 04:58:52;;;;;;;1.40;1.40;;;7.40;77.80;;;;;;5080925;28;20212;-63
2024/01/18 05:01:19;;;;;;;1.50;1.50;;;7.40;76.50;;;;;;5074751;28;20228;-63
2024/01/18 05:03:46;;;;;;;1.20;1.20;;;7.40;76.90;;;;;;5072079;28;20199;-63
2024/01/18 05:06:12;;;;;;;1.30;1.30;;;7.40;76.60;;;;;;5074112;28;20219;-63
2024/01/18 05:08:39;;;;;;;1.37;1.37;;;7.40;76.10;;;;;;5071446;28;20702;-61
2024/01/18 05:11:06;;;;;;;1.67;1.57;;;7.40;76.40;;;;;;5074708;28;20204;-64
2024/01/18 05:13:33;;;;;;;1.30;1.30;;;7.40;76.40;;;;;;5073772;28;20217;-63
2024/01/18 05:16:01;;;;;;;1.67;1.57;;;7.40;75.90;;;;;;5077508;28;20220;-62
2024/01/18 05:18:28;;;;;;;1.60;1.50;;;7.40;75.60;;;;;;5082035;28;20215;-63
2024/01/18 05:20:54;;;;;;;1.47;1.43;;;7.50;75.70;;;;;;5077994;28;20231;-63
2024/01/18 05:23:21;;;;;;;1.70;1.60;;;7.50;74.80;;;;;;5062732;28;20280;-64
2024/01/18 05:25:47;;;;;;;1.50;1.40;;;7.40;74.80;;;;;;5078793;28;20569;-63
2024/01/18 05:28:14;;;;;;;1.60;1.50;;;7.40;74.80;;;;;;5073944;28;20261;-62
2024/01/18 05:30:40;;;;;;;1.50;1.40;;;7.40;74.70;;;;;;5078847;28;20562;-63
2024/01/18 05:33:07;;;;;;;1.37;1.30;;;7.40;74.70;;;;;;5070994;28;20231;-64
2024/01/18 05:35:33;;;;;;;1.70;1.60;;;7.40;74.70;;;;;;5077554;28;20267;-63
2024/01/18 05:38:00;;;;;;;1.50;1.50;;;7.30;75.20;;;;;;5077537;28;20212;-63
2024/01/18 05:40:26;;;;;;;1.67;1.60;;;7.30;75.10;;;;;;5064194;28;20233;-64
2024/01/18 05:42:53;;;;;;;1.60;1.50;;;7.30;75.30;;;;;;5069787;28;20230;-63
2024/01/18 05:45:19;;;;;;;1.70;1.60;;;7.30;74.70;;;;;;5064930;28;20222;-63
2024/01/18 05:47:46;;;;;;;1.70;1.60;;;7.30;74.70;;;;;;5070310;28;20244;-63
2024/01/18 05:50:12;;;;;;;1.50;1.40;;;7.30;75.30;;;;;;5074205;28;20210;-63
2024/01/18 05:52:39;;;;;;;1.60;1.50;;;7.20;76.20;;;;;;5080203;28;20400;-63
2024/01/18 05:55:05;;;;;;;1.53;1.50;;;7.20;76.00;;;;;;5068253;28;20231;-63
2024/01/18 05:57:32;;;;;;;1.47;1.40;;;7.20;75.80;;;;;;5074663;28;20207;-63
2024/01/18 05:59:58;;;;;;;2.43;2.17;;;7.20;75.50;;;;;;5066016;28;20669;-64
2024/01/18 06:02:25;;;;;;;1.80;1.70;;;7.20;76.80;;;;;;5071743;28;20248;-64
2024/01/18 06:04:51;;;;;;;2.30;1.83;;;7.20;76.20;;;;;;5075527;28;20817;-63
2024/01/18 06:07:18;;;;;;;1.40;1.40;;;7.20;75.60;;;;;;5079689;28;20227;-60
2024/01/18 06:09:44;;;;;;;1.60;1.50;;;7.20;75.50;;;;;;5072579;28;20687;-63
2024/01/18 06:12:11;;;;;;;1.50;1.40;;;7.20;75.30;;;;;;5080466;28;20265;-63
2024/01/18 06:14:38;;;;;;;1.50;1.40;;;7.20;76.00;;;;;;5071050;28;20259;-63
2024/01/18 06:17:04;;;;;;;1.80;1.70;;;7.20;75.20;;;;;;5078134;28;20224;-63
2024/01/18 06:19:32;;;;;;;1.87;1.60;;;7.20;75.50;;;;;;5071180;28;20239;-64
2024/01/18 06:21:58;;;;;;;1.87;1.77;;;7.20;76.80;;;;;;5075502;28;20224;-61
2024/01/18 06:24:25;;;;;;;1.63;1.53;;;7.20;76.00;;;;;;5055260;28;20212;-62
2024/01/18 06:26:52;;;;;;;2.03;1.93;;;7.10;75.80;;;;;;5061483;28;20714;-64
2024/01/18 06:29:18;;;;;;;1.70;1.60;;;7.10;76.90;;;;;;5067934;28;20211;-64
2024/01/18 06:31:45;;;;;;;3.93;1.83;;;7.10;76.10;;;;;;5081457;28;20199;-62
2024/01/18 06:34:12;;;;;;;2.00;1.80;;;7.10;76.70;;;;;;5078237;28;20222;-63
2024/01/18 06:36:39;;;;;;;2.07;1.93;;;7.10;76.30;;;;;;5068030;28;20306;-63
2024/01/18 06:39:05;;;;;;;2.03;1.93;;;7.10;76.60;;;;;;5077769;28;20207;-62
2024/01/18 06:41:32;;;;;;;1.80;1.70;;;7.00;76.70;;;;;;5083404;28;20231;-63
2024/01/18 06:43:59;;;;;;;2.00;1.90;;;7.00;76.60;;;;;;5067064;28;20698;-64
2024/01/18 06:46:25;;;;;;;2.23;2.00;;;7.00;76.70;;;;;;5074371;28;20796;-64
2024/01/18 06:48:53;;;;;;;2.00;1.90;;;7.00;76.30;;;;;;5086276;28;20216;-63
2024/01/18 06:51:21;;;;;;;2.03;1.90;;;7.00;76.60;;;;;;5085223;28;20211;-63
2024/01/18 06:53:47;;;;;;;1.90;1.80;;;7.10;75.80;;;;;;5081723;28;20216;-63
2024/01/18 06:56:14;;;;;;;2.83;2.00;;;7.00;76.00;;;;;;5086233;28;20219;-63
2024/01/18 06:58:40;;;;;;;2.03;1.90;;;6.90;76.00;;;;;;5082944;28;20731;-63
2024/01/18 07:01:07;;;;;;;1.77;1.67;;;6.90;77.30;;;;;;5068157;28;20225;-63
2024/01/18 07:03:35;;;;;;;2.50;2.10;;;6.90;76.30;;;;;;5077014;28;20670;-64
2024/01/18 07:06:01;;;;;;;2.33;2.13;;;6.90;77.30;;;;;;5075484;28;20231;-63
2024/01/18 07:08:28;;;;;;;2.77;2.10;;;6.90;76.60;;;;;;5074124;28;20662;-63
2024/01/18 07:10:54;;;;;;;2.10;2.00;;;6.90;76.90;;;;;;5079011;28;20238;-61
2024/01/18 07:13:21;;;;;;;2.33;2.23;;;6.90;77.30;;;;;;5073467;28;20258;-62
2024/01/18 07:15:47;;;;;;;4.57;2.10;;;6.90;76.60;;;;;;5072573;28;20227;-63
2024/01/18 07:18:14;;;;;;;2.10;2.00;;;6.90;76.30;;;;;;5084792;28;20264;-63
2024/01/18 07:20:40;;;;;;;2.83;2.20;;;6.90;76.10;;;;;;5070112;28;20254;-63
2024/01/18 07:23:07;;;;;;;2.27;2.07;;;7.00;75.90;;;;;;5064338;28;20251;-65
2024/01/18 07:25:33;;;;;;;2.17;2.00;;;6.90;74.30;;;;;;5042480;28;20710;-65
2024/01/18 07:28:00;;;;;;;2.10;2.00;;;6.80;74.90;;;;;;5060671;28;20212;-63
2024/01/18 07:30:27;;;;;;;2.40;2.20;;;7.00;75.10;;;;;;5079629;28;20212;-63
2024/01/18 07:32:53;;;;;;;2.63;2.00;;;7.00;74.50;;;;;;5077338;28;20235;-62
2024/01/18 07:35:20;;;;;;;2.90;2.37;;;6.90;74.30;;;;;;5074834;28;20227;-63
2024/01/18 07:37:47;;;;;;;2.40;2.30;;;6.90;74.30;;;;;;5083111;28;20203;-62
2024/01/18 07:40:13;;;;;;;2.40;2.13;;;7.00;75.00;;;;;;5074974;28;20621;-62
2024/01/18 07:42:40;;;;;;;2.50;2.10;;;7.00;74.40;;;;;;5085679;28;20222;-63
2024/01/18 07:45:07;;;;;;;4.53;2.53;;;7.00;74.40;;;;;;5054013;28;20258;-61
2024/01/18 07:47:34;;;;;;;2.30;2.10;;;7.00;73.70;;;;;;5063960;28;20262;-63
2024/01/18 07:50:01;;;;;;;2.73;2.47;;;7.00;73.60;;;;;;5070716;28;21036;-63
2024/01/18 07:52:27;;;;;;;2.37;2.00;;;7.00;73.00;;;;;;5070272;28;20335;-63
2024/01/18 07:54:54;;;;;;;2.37;2.00;;;7.10;72.50;;;;;;5071926;28;20263;-63
2024/01/18 07:57:20;;;;;;;2.17;2.00;;;7.10;72.10;;;;;;5069853;28;20207;-61
2024/01/18 07:59:47;;;;;;;2.00;1.90;;;7.00;72.20;;;;;;5039459;28;20634;-62
2024/01/18 08:02:14;;;;;;;2.20;2.00;;;7.10;72.50;;;;;;5060508;28;20244;-62
2024/01/18 08:04:40;;;;;;;2.00;1.90;;;7.00;71.90;;;;;;5071338;28;20204;-63
2024/01/18 08:07:07;;;;;;;2.93;2.00;;;7.10;72.60;;;;;;5055834;28;20220;-63
2024/01/18 08:09:35;;;;;;;2.53;1.97;;;7.10;71.70;;;;;;5066670;28;20322;-62
2024/01/18 08:12:01;;;;;;;2.20;2.00;;;7.00;72.70;;;;;;5073981;28;20214;-63
2024/01/18 08:14:28;;;;;;;2.20;2.00;;;7.00;71.90;;;;;;5073160;28;20206;-62
2024/01/18 08:16:55;;;;;;;2.40;2.20;;;7.00;72.00;;;;;;5057395;28;20267;-65
2024/01/18 08:19:21;;;;;;;1.97;1.87;;;7.10;72.20;;;;;;5072013;28;20211;-65
2024/01/18 08:21:48;;;;;;;2.57;2.23;;;7.10;71.30;;;;;;5080590;28;20234;-63
2024/01/18 08:24:14;;;;;;;2.17;1.97;;;7.20;71.80;;;;;;5062388;28;20217;-64
2024/01/18 08:26:41;;;;;;;3.53;2.23;;;7.20;71.90;;;;;;5073386;28;20267;-65
2024/01/18 08:29:07;;;;;;;2.60;2.40;;;7.20;71.70;;;;;;5067866;28;20212;-65
2024/01/18 08:31:34;;;;;;;2.77;2.00;;;7.20;72.30;;;;;;5068299;28;20205;-63
2024/01/18 08:34:00;;;;;;;2.07;1.97;;;7.30;71.40;;;;;;5069418;28;20235;-63
2024/01/18 08:36:27;;;;;;;2.07;1.97;;;7.20;70.60;;;;;;5061920;28;20331;-65
2024/01/18 08:38:55;;;;;;;1.90;1.80;;;7.30;71.10;;;;;;5067302;28;20213;-65
2024/01/18 08:41:21;;;;;;;2.70;2.10;;;7.40;70.60;;;;;;5072100;28;20208;-64
2024/01/18 08:43:48;;;;;;;2.73;2.50;;;7.40;71.10;;;;;;5060346;28;20245;-64
2024/01/18 08:46:14;;;;;;;2.20;2.10;;;7.40;70.30;;;;;;5067611;28;20253;-65
2024/01/18 08:48:41;;;;;;;3.20;2.20;;;7.40;70.30;;;;;;5065007;28;20299;-63
2024/01/18 08:51:12;;;;;;;2.33;2.13;;;7.50;70.20;;;;;;5063881;28;20236;-63
2024/01/18 08:53:39;;;;;;;2.47;2.20;;;7.60;70.20;;;;;;5062968;28;20361;-65
2024/01/18 08:56:05;;;;;;;2.10;2.00;;;7.70;69.80;;;;;;5063830;28;20240;-64
2024/01/18 08:58:32;;;;;;;2.17;2.03;;;7.80;70.20;;;;;;5070423;28;20232;-64
2024/01/18 09:00:58;;;;;;;2.60;1.80;;;7.90;68.80;;;;;;5070203;28;20286;-64
2024/01/18 09:03:25;;;;;;;2.30;2.10;;;7.90;68.50;;;;;;5062999;28;20808;-64
2024/01/18 09:05:52;;;;;;;2.23;2.10;;;8.00;67.70;;;;;;5061103;28;20261;-65
2024/01/18 09:08:18;;;;;;;1.70;1.60;;;8.20;67.10;;;;;;5069281;28;20288;-64
2024/01/18 09:10:45;;;;;;;1.73;1.63;;;8.30;66.50;;;;;;5071969;28;20219;-64
2024/01/18 09:13:12;;;;;;;2.10;2.00;;;8.60;65.60;;;;;;5072946;28;20751;-64
2024/01/18 09:15:38;;;;;;;2.47;1.80;;;9.10;65.30;;;;;;5060681;28;20273;-63
2024/01/18 09:18:05;;;;;;;2.40;2.00;;;9.40;63.30;;;;;;5080177;28;20574;-62
2024/01/18 09:20:32;;;;;;;2.33;1.60;;;9.10;63.10;;;;;;5073275;28;20231;-62
2024/01/18 09:22:58;;;;;;;1.93;1.80;;;9.00;63.10;;;;;;5079570;28;20735;-62
2024/01/18 09:25:25;;;;;;;2.17;1.67;;;9.00;62.80;;;;;;5062210;28;20265;-61
2024/01/18 09:27:52;;;;;;;2.13;1.47;;;9.10;64.00;;;;;;5070445;28;20234;-67
2024/01/18 09:30:18;;;;;;;1.50;1.40;;;9.20;62.40;;;;;;5069861;28;20212;-62
2024/01/18 09:32:45;;;;;;;1.50;1.40;;;9.40;62.10;;;;;;5062624;28;20231;-59
2024/01/18 09:35:12;;;;;;;1.40;1.40;;;9.50;63.00;;;;;;5071928;28;20307;-61
2024/01/18 09:37:38;;;;;;;1.77;1.50;;;9.50;62.10;;;;;;5064993;28;20677;-62
2024/01/18 09:40:05;;;;;;;1.33;1.30;;;9.40;62.10;;;;;;5049793;28;20231;-61
2024/01/18 09:42:31;;;;;;;2.03;1.80;;;9.20;64.20;;;;;;5069117;28;20567;-60
2024/01/18 09:44:58;;;;;;;1.73;1.63;;;9.20;62.70;;;;;;5069709;28;20337;-61
2024/01/18 09:47:24;;;;;;;1.70;1.50;;;9.10;64.50;;;;;;5080475;28;20202;-61
2024/01/18 09:49:51;;;;;;;1.50;1.40;;;9.10;63.60;;;;;;5081572;28;20210;-59
2024/01/18 09:52:18;;;;;;;1.37;1.33;;;9.10;64.50;;;;;;5074703;28;20300;-61
2024/01/18 09:54:44;;;;;;;1.47;1.43;;;9.20;63.60;;;;;;5056980;28;20210;-60
2024/01/18 09:57:11;;;;;;;1.37;1.30;;;9.20;63.40;;;;;;5071496;28;20229;-61
2024/01/18 09:59:38;;;;;;;1.97;1.87;;;9.20;63.40;;;;;;5086206;28;20215;-61
2024/01/18 10:02:04;;;;;;;1.50;1.30;;;9.20;63.90;;;;;;5067393;28;20227;-61
2024/01/18 10:04:32;;;;;;;1.40;1.30;;;9.20;64.00;;;;;;5051182;28;20234;-61
2024/01/18 10:06:58;;;;;;;1.60;1.50;;;9.20;63.90;;;;;;5078083;28;20228;-58
2024/01/18 10:09:25;;;;;;;1.73;1.40;;;9.20;64.70;;;;;;5055332;28;20684;-61
2024/01/18 10:11:51;;;;;;;1.70;1.60;;;9.20;64.30;;;;;;5079408;28;20254;-60
2024/01/18 10:14:18;;;;;;;1.67;1.57;;;9.30;65.00;;;;;;5064332;28;20635;-61
2024/01/18 10:16:45;;;;;;;1.63;1.53;;;9.30;64.40;;;;;;5074770;28;20226;-61
2024/01/18 10:19:14;;;;;;;1.20;1.20;;;9.30;64.70;;;;;;5067119;28;20700;-60
2024/01/18 10:21:40;;;;;;;1.40;1.40;;;9.30;64.90;;;;;;5074386;28;20260;-61
2024/01/18 10:24:08;;;;;;;1.60;1.50;;;9.30;65.00;;;;;;5076301;28;20244;-59
2024/01/18 10:26:35;;;;;;;1.60;1.50;;;9.30;65.50;;;;;;5082204;28;20258;-61
2024/01/18 10:29:02;;;;;;;1.60;1.50;;;9.30;65.30;;;;;;5082094;28;20614;-61
2024/01/18 10:31:28;;;;;;;1.70;1.60;;;9.40;65.00;;;;;;5075802;28;20208;-61
2024/01/18 10:33:55;;;;;;;1.43;1.30;;;9.40;65.30;;;;;;5056009;28;20690;-61
2024/01/18 10:36:21;;;;;;;1.50;1.40;;;9.30;66.30;;;;;;5074278;28;20231;-61
2024/01/18 10:38:48;;;;;;;1.50;1.40;;;9.40;66.20;;;;;;5071117;28;20296;-59
2024/01/18 10:41:14;;;;;;;1.30;1.20;;;9.40;65.80;;;;;;5077163;28;20269;-61
2024/01/18 10:43:41;;;;;;;1.57;1.47;;;9.60;65.40;;;;;;5053333;28;20268;-60
2024/01/18 10:46:07;;;;;;;1.50;1.40;;;9.60;65.20;;;;;;5069159;28;20770;-61
2024/01/18 10:48:34;;;;;;;1.50;1.40;;;9.60;64.50;;;;;;5083744;28;20211;-61
2024/01/18 10:51:01;;;;;;;1.47;1.37;;;9.70;64.60;;;;;;5069124;28;20204;-61
2024/01/18 10:53:29;;;;;;;1.60;1.50;;;9.70;64.00;;;;;;5067147;28;20265;-58
2024/01/18 10:55:56;;;;;;;1.60;1.50;;;10.10;63.50;;;;;;5080747;28;20588;-59
2024/01/18 10:58:22;;;;;;;1.60;1.50;;;10.10;62.20;;;;;;5050105;28;20663;-59
2024/01/18 11:00:49;;;;;;;1.30;1.30;;;10.20;61.60;;;;;;5072727;28;20236;-57
2024/01/18 11:03:15;;;;;;;1.53;1.43;;;10.30;61.40;;;;;;5069366;28;20225;-67
2024/01/18 11:05:42;;;;;;;1.40;1.30;;;10.70;61.30;;;;;;5070922;28;20308;-64
2024/01/18 11:08:08;;;;;;;1.33;1.27;;;10.90;60.50;;;;;;5072687;28;20287;-62
2024/01/18 11:10:36;;;;;;;1.63;1.43;;;11.00;59.30;;;;;;5064123;28;20695;-59
2024/01/18 11:13:02;;;;;;;1.33;1.33;;;10.90;59.70;;;;;;5073486;28;20204;-58
2024/01/18 11:15:29;;;;;;;1.30;1.20;;;10.70;60.30;;;;;;5077694;28;20303;-59
2024/01/18 11:17:56;;;;;;;1.30;1.30;;;10.60;59.90;;;;;;5080569;28;20213;-59
2024/01/18 11:20:23;;;;;;;1.40;1.30;;;10.60;60.20;;;;;;5079916;28;20233;-60
2024/01/18 11:22:49;;;;;;;1.60;1.50;;;10.70;59.80;;;;;;5069336;28;20254;-59
2024/01/18 11:25:16;;;;;;;1.50;1.40;;;10.90;58.70;;;;;;5051839;28;20218;-57
2024/01/18 11:27:43;;;;;;;1.30;1.20;;;11.20;58.90;;;;;;5069397;28;20259;-58
2024/01/18 11:30:09;;;;;;;1.40;0.97;;;11.70;55.80;;;;;;5072371;28;20628;-59
2024/01/18 11:32:36;;;;;;;1.40;1.10;;;12.10;55.70;;;;;;5081035;28;20438;-58
2024/01/18 11:35:03;;;;;;;1.10;1.10;;;12.20;54.10;;;;;;5053446;28;20203;-58
2024/01/18 11:37:29;;;;;;;1.00;1.00;;;12.00;54.10;;;;;;5073618;28;20233;-58
2024/01/18 11:39:56;;;;;;;1.17;1.17;;;11.70;54.70;;;;;;5079232;28;20206;-59
2024/01/18 11:42:22;;;;;;;1.40;1.30;;;11.70;54.50;;;;;;5068667;28;20715;-59
2024/01/18 11:44:49;;;;;;;1.17;1.17;;;11.80;54.90;;;;;;5063706;28;20235;-58
2024/01/18 11:47:16;;;;;;;1.10;1.10;;;12.00;53.50;;;;;;5068154;28;20255;-57
2024/01/18 11:49:42;;;;;;;1.13;1.13;;;12.00;52.90;;;;;;5061530;28;20579;-59
2024/01/18 11:52:09;;;;;;;1.07;1.07;;;12.00;53.40;;;;;;5058395;28;20445;-58
2024/01/18 11:54:36;;;;;;;1.47;1.37;;;12.00;52.80;;;;;;5056447;28;20241;-54
2024/01/18 11:57:02;;;;;;;1.10;1.10;;;11.90;54.30;;;;;;5059418;28;20243;-57
2024/01/18 11:59:29;;;;;;;1.10;1.10;;;11.80;54.20;;;;;;5061976;28;20286;-58
2024/01/18 12:01:55;;;;;;;1.10;1.10;;;11.70;55.00;;;;;;5072500;28;20291;-56
2024/01/18 12:04:23;;;;;;;1.17;1.17;;;11.60;54.50;;;;;;5061648;28;20248;-58
2024/01/18 12:06:49;;;;;;;1.10;1.10;;;11.60;54.90;;;;;;5082803;28;20242;-58
2024/01/18 12:09:16;;;;;;;1.20;1.17;;;11.40;55.30;;;;;;5074889;28;20217;-57
2024/01/18 12:11:43;;;;;;;1.20;1.20;;;11.40;55.90;;;;;;5079529;28;20199;-61
2024/01/18 12:14:09;;;;;;;2.00;1.20;;;11.30;55.00;;;;;;5062953;28;20230;-59
2024/01/18 12:16:36;;;;;;;1.30;1.20;;;11.30;55.50;;;;;;5072778;28;20262;-59
2024/01/18 12:19:05;;;;;;;1.73;1.30;;;11.20;56.00;;;;;;5054917;28;20242;-59
2024/01/18 12:21:32;;;;;;;1.30;1.30;;;11.20;56.30;;;;;;5063773;28;20297;-59
2024/01/18 12:23:58;;;;;;;2.00;1.30;;;11.10;56.50;;;;;;5064236;28;20253;-58
2024/01/18 12:26:25;;;;;;;1.10;1.10;;;11.20;56.30;;;;;;5063640;28;20312;-58
2024/01/18 12:28:51;;;;;;;1.20;1.20;;;11.10;56.50;;;;;;5055642;28;20203;-59
2024/01/18 12:31:20;;;;;;;1.17;1.17;;;11.10;57.00;;;;;;5070882;28;20217;-59
2024/01/18 12:33:46;;;;;;;1.27;1.17;;;11.00;57.30;;;;;;5068971;28;20202;-59
2024/01/18 12:36:13;;;;;;;1.40;1.30;;;11.00;57.70;;;;;;5075154;28;20728;-59
2024/01/18 12:38:39;;;;;;;1.30;1.30;;;11.00;58.70;;;;;;5060148;28;20233;-59
2024/01/18 12:41:06;;;;;;;1.23;1.23;;;10.90;58.70;;;;;;5069980;28;20237;-60
2024/01/18 12:43:32;;;;;;;1.40;1.30;;;10.90;58.70;;;;;;5059385;28;20676;-62
2024/01/18 12:45:59;;;;;;;1.30;1.20;;;10.90;58.70;;;;;;5078613;28;20269;-59
2024/01/18 12:48:27;;;;;;;1.10;1.10;;;10.90;59.20;;;;;;5060079;28;20679;-59
2024/01/18 12:50:54;;;;;;;1.13;1.03;;;10.80;58.90;;;;;;5075251;28;20581;-59